Time;durP1;ratioP1;P1;durP2;ratioP2;P2;SDS_P1;SDS_P2;PMS_P1;PMS_P2;Temp;Humidity;BMP_temperature;BMP_pressure;BME280_temperature;BME280_humidity;BME280_pressure;Samples;Min_cycle;Max_cycle;Signal;HPM_P1;HPM_P2
2024/04/01 00:00:02;;;;;;;20.40;3.80;;;;;;;15.01;56.18;100614.95;107548;1251;108263;-62
2024/04/01 00:03:02;;;;;;;17.90;4.00;;;;;;;14.98;56.30;100619.21;107532;1254;99288;-62
2024/04/01 00:05:30;;;;;;;18.60;3.80;;;;;;;14.96;56.16;100614.59;107651;1251;99706;-62
2024/04/01 00:07:59;;;;;;;27.70;3.90;;;;;;;14.93;56.91;100619.79;107550;1251;113362;-62
2024/04/01 00:10:28;;;;;;;16.20;4.00;;;;;;;14.88;56.69;100615.52;107553;1251;108294;-63
2024/04/01 00:12:59;;;;;;;20.70;4.40;;;;;;;14.86;56.70;100606.67;107496;1253;109893;-62
2024/04/01 00:15:29;;;;;;;24.10;4.20;;;;;;;14.84;56.56;100612.06;107662;1256;99198;-62
2024/04/01 00:17:57;;;;;;;27.20;5.00;;;;;;;14.84;57.36;100611.24;107600;1257;99172;-61
2024/04/01 00:20:25;;;;;;;18.00;4.80;;;;;;;14.77;57.54;100611.21;107595;1254;112791;-62
2024/04/01 00:22:53;;;;;;;17.40;4.30;;;;;;;14.71;57.34;100604.68;107619;1251;108231;-61
2024/04/01 00:25:22;;;;;;;18.20;4.30;;;;;;;14.66;57.27;100601.40;107576;1251;108440;-61
2024/04/01 00:27:51;;;;;;;14.30;3.80;;;;;;;14.63;57.25;100601.17;107462;1254;99202;-61
2024/04/01 00:30:20;;;;;;;15.20;3.80;;;;;;;14.61;57.58;100602.53;107544;1254;99087;-61
2024/04/01 00:32:48;;;;;;;13.10;3.60;;;;;;;14.59;57.64;100605.20;107558;1254;112736;-62
2024/04/01 00:35:17;;;;;;;22.40;4.80;;;;;;;14.56;57.65;100603.73;107547;1253;108391;-61
2024/04/01 00:37:45;;;;;;;17.90;4.10;;;;;;;14.52;57.55;100604.89;107593;1254;108295;-61
2024/04/01 00:40:13;;;;;;;28.60;5.20;;;;;;;14.48;57.84;100606.36;107478;1251;99192;-62
2024/04/01 00:42:42;;;;;;;26.20;5.10;;;;;;;14.45;58.08;100604.94;107502;1254;99301;-62
2024/04/01 00:45:10;;;;;;;21.00;4.50;;;;;;;14.41;58.28;100602.80;107558;1251;112768;-61
2024/04/01 00:47:38;;;;;;;17.30;4.30;;;;;;;14.40;58.48;100602.05;107542;1254;107377;-61
2024/04/01 00:50:07;;;;;;;21.40;4.30;;;;;;;14.38;58.43;100603.60;107518;1255;108352;-63
2024/04/01 00:52:36;;;;;;;20.20;5.20;;;;;;;14.36;58.55;100604.91;107517;1254;99070;-62
2024/04/01 00:55:05;;;;;;;21.40;5.10;;;;;;;14.34;58.60;100608.67;107606;1256;99156;-62
2024/04/01 00:57:33;;;;;;;15.60;4.10;;;;;;;14.32;58.61;100607.94;107608;1254;113627;-61
2024/04/01 01:00:01;;;;;;;26.60;4.20;;;;;;;14.31;59.01;100613.08;107575;1254;106954;-62
2024/04/01 01:02:30;;;;;;;29.00;5.10;;;;;;;14.30;59.10;100610.98;107563;1256;107336;-62
2024/04/01 01:04:59;;;;;;;19.80;4.10;;;;;;;14.28;59.04;100611.25;107461;1254;99195;-63
2024/04/01 01:07:27;;;;;;;22.60;5.50;;;;;;;14.26;58.90;100607.08;107664;1254;99717;-62
2024/04/01 01:09:55;;;;;;;25.70;4.70;;;;;;;14.24;59.11;100608.27;107577;1254;112294;-61
2024/04/01 01:12:24;;;;;;;17.30;4.20;;;;;;;14.21;59.78;100602.60;107597;1253;108240;-61
2024/04/01 01:14:52;;;;;;;18.90;4.70;;;;;;;14.14;59.89;100608.44;107507;1254;108252;-61
2024/04/01 01:17:20;;;;;;;28.70;4.20;;;;;;;14.07;59.83;100614.66;107577;1254;99168;-62
2024/04/01 01:19:49;;;;;;;22.00;4.90;;;;;;;14.05;59.98;100620.48;107580;1257;99118;-61
2024/04/01 01:22:39;;;;;;;19.30;4.90;;;;;;;14.02;60.32;100627.32;107607;1256;113696;-61
2024/04/01 01:25:09;;;;;;;20.80;4.70;;;;;;;13.97;60.63;100634.16;107518;1254;108323;-62
2024/04/01 01:27:41;;;;;;;21.10;4.10;;;;;;;13.95;60.72;100635.46;107608;1254;107810;-62
2024/04/01 01:30:16;;;;;;;19.10;4.20;;;;;;;13.93;60.51;100633.27;107570;1254;99185;-63
2024/04/01 01:32:54;;;;;;;20.20;4.80;;;;;;;13.93;60.61;100633.88;107586;1253;99813;-61
2024/04/01 01:35:26;;;;;;;25.60;4.80;;;;;;;13.94;60.78;100625.63;107646;1254;113571;-61
2024/04/01 01:37:55;;;;;;;19.30;5.40;;;;;;;13.97;60.84;100626.45;107548;1254;107647;-61
2024/04/01 01:40:23;;;;;;;32.40;4.70;;;;;;;13.99;60.71;100626.96;107492;1253;106928;-63
2024/04/01 01:42:52;;;;;;;17.60;4.60;;;;;;;14.00;60.60;100625.22;107468;1254;99186;-62
2024/04/01 01:45:21;;;;;;;23.00;4.50;;;;;;;14.01;60.63;100625.80;107539;1254;100374;-61
2024/04/01 01:47:50;;;;;;;30.40;5.00;;;;;;;14.00;60.72;100625.89;107495;1254;113638;-62
2024/04/01 01:50:18;;;;;;;24.80;4.80;;;;;;;13.98;60.93;100626.69;107600;1251;108426;-61
2024/04/01 01:52:46;;;;;;;18.90;4.80;;;;;;;13.95;60.81;100629.65;107578;1251;108164;-62
2024/04/01 01:55:15;;;;;;;23.00;6.40;;;;;;;13.91;60.88;100623.55;107473;1254;99272;-61
2024/04/01 01:57:43;;;;;;;18.60;4.90;;;;;;;13.89;60.92;100621.69;107589;1254;99887;-63
2024/04/01 02:00:15;;;;;;;23.70;5.00;;;;;;;13.86;60.75;100622.98;107557;1250;112658;-62
2024/04/01 02:02:43;;;;;;;20.70;5.20;;;;;;;13.84;60.94;100625.83;107573;1251;107747;-63
2024/04/01 02:05:11;;;;;;;18.00;5.00;;;;;;;13.82;61.01;100624.05;107529;1251;107803;-63
2024/04/01 02:07:40;;;;;;;16.40;4.60;;;;;;;13.80;61.30;100624.92;107527;1251;99195;-63
2024/04/01 02:10:08;;;;;;;22.20;4.70;;;;;;;13.80;61.39;100625.18;107514;1251;99185;-63
2024/04/01 02:12:36;;;;;;;22.20;5.20;;;;;;;13.79;61.34;100623.60;107466;1253;113672;-62
2024/04/01 02:15:06;;;;;;;19.50;4.30;;;;;;;13.78;61.78;100619.88;107541;1251;108331;-63
2024/04/01 02:17:35;;;;;;;17.10;4.80;;;;;;;13.73;62.50;100625.09;107595;1251;108197;-62
2024/04/01 02:20:11;;;;;;;29.90;4.90;;;;;;;13.69;62.21;100623.38;107515;1254;99169;-61
2024/04/01 02:22:40;;;;;;;19.90;4.40;;;;;;;13.69;62.45;100621.40;107568;1254;99112;-61
2024/04/01 02:25:08;;;;;;;20.10;4.70;;;;;;;13.71;62.51;100623.01;107584;1254;113101;-62
2024/04/01 02:27:36;;;;;;;28.70;5.00;;;;;;;13.72;62.48;100623.42;107592;1251;109530;-61
2024/04/01 02:30:05;;;;;;;24.00;5.30;;;;;;;13.72;62.76;100621.23;107564;1251;107805;-62
2024/04/01 02:32:33;;;;;;;26.00;5.00;;;;;;;13.71;62.68;100620.27;107597;1250;99232;-61
2024/04/01 02:35:03;;;;;;;20.90;5.30;;;;;;;13.68;63.63;100618.64;107534;1251;99866;-62
2024/04/01 02:37:32;;;;;;;24.50;5.70;;;;;;;13.64;63.71;100615.48;107543;1251;112236;-62
2024/04/01 02:40:00;;;;;;;26.60;5.20;;;;;;;13.59;64.14;100613.35;107538;1251;108310;-62
2024/04/01 02:42:28;;;;;;;14.80;4.50;;;;;;;13.57;63.90;100613.98;107535;1254;108314;-62
2024/04/01 02:44:56;;;;;;;23.50;4.90;;;;;;;13.58;63.74;100613.35;107512;1251;99047;-62
2024/04/01 02:47:24;;;;;;;33.80;5.40;;;;;;;13.58;63.73;100611.86;107547;1251;99185;-62
2024/04/01 02:49:52;;;;;;;25.40;4.40;;;;;;;13.59;64.20;100613.58;107542;1254;112820;-61
2024/04/01 02:52:21;;;;;;;22.10;5.20;;;;;;;13.57;64.17;100615.44;107418;1254;108289;-61
2024/04/01 02:54:49;;;;;;;21.70;5.20;;;;;;;13.56;64.15;100620.63;107548;1254;107834;-63
2024/04/01 02:57:17;;;;;;;18.60;4.60;;;;;;;13.53;64.23;100624.35;107542;1254;99214;-62
2024/04/01 02:59:48;;;;;;;22.00;5.50;;;;;;;13.51;64.50;100627.59;107505;1253;99055;-63
2024/04/01 03:02:16;;;;;;;28.20;5.00;;;;;;;13.46;64.18;100629.11;107509;1254;113432;-61
2024/04/01 03:04:44;;;;;;;19.80;5.00;;;;;;;13.44;64.30;100633.45;107429;1256;108021;-62
2024/04/01 03:07:12;;;;;;;20.50;4.90;;;;;;;13.42;64.45;100632.59;107455;1251;108506;-62
2024/04/01 03:09:40;;;;;;;23.10;7.00;;;;;;;13.39;64.50;100630.38;107483;1256;99083;-62
2024/04/01 03:12:09;;;;;;;19.90;5.30;;;;;;;13.39;64.58;100633.48;107572;1254;99304;-61
2024/04/01 03:14:37;;;;;;;20.00;4.80;;;;;;;13.39;64.65;100631.16;107576;1256;113607;-62
2024/04/01 03:17:05;;;;;;;23.30;5.20;;;;;;;13.40;64.90;100633.02;107602;1254;107932;-61
2024/04/01 03:19:33;;;;;;;27.10;5.10;;;;;;;13.40;64.82;100634.43;107546;1254;107484;-61
2024/04/01 03:22:03;;;;;;;23.40;5.10;;;;;;;13.41;64.78;100632.15;107613;1253;99683;-61
2024/04/01 03:24:31;;;;;;;29.10;5.50;;;;;;;13.43;64.84;100631.33;107579;1252;99199;-62
2024/04/01 03:26:59;;;;;;;24.90;5.30;;;;;;;13.43;64.91;100638.08;107607;1254;112586;-62
2024/04/01 03:29:27;;;;;;;24.00;5.30;;;;;;;13.44;64.93;100636.19;107459;1254;110465;-63
2024/04/01 03:31:55;;;;;;;37.30;6.00;;;;;;;13.44;64.98;100635.27;107542;1254;107377;-61
2024/04/01 03:34:23;;;;;;;28.00;5.20;;;;;;;13.44;65.85;100639.23;107598;1254;99192;-61
2024/04/01 03:36:54;;;;;;;22.40;5.50;;;;;;;13.42;65.37;100636.34;107602;1254;99733;-63
2024/04/01 03:39:23;;;;;;;33.10;6.60;;;;;;;13.43;65.41;100636.17;107515;1254;112421;-62
2024/04/01 03:41:51;;;;;;;31.80;6.40;;;;;;;13.45;65.63;100638.28;107538;1254;107801;-61
2024/04/01 03:44:19;;;;;;;40.40;7.60;;;;;;;13.46;65.53;100643.76;107520;1254;107016;-62
2024/04/01 03:46:47;;;;;;;39.10;5.50;;;;;;;13.46;65.47;100640.71;107531;1256;99821;-62
2024/04/01 03:49:16;;;;;;;23.50;5.70;;;;;;;13.45;65.96;100647.27;107520;1254;99172;-62
2024/04/01 03:51:45;;;;;;;30.20;5.90;;;;;;;13.43;65.87;100643.65;107633;1253;113094;-63
2024/04/01 03:54:14;;;;;;;37.00;5.80;;;;;;;13.42;65.85;100644.72;107461;1251;108379;-62
2024/04/01 03:56:42;;;;;;;36.50;7.40;;;;;;;13.41;65.81;100646.94;107474;1251;108386;-62
2024/04/01 03:59:11;;;;;;;35.30;5.00;;;;;;;13.42;65.93;100648.84;107479;1251;99259;-63
2024/04/01 04:01:40;;;;;;;34.30;6.00;;;;;;;13.43;66.03;100652.13;107537;1250;99064;-63
2024/04/01 04:04:08;;;;;;;29.50;5.40;;;;;;;13.43;65.78;100650.17;107555;1251;112483;-61
2024/04/01 04:06:37;;;;;;;23.20;6.10;;;;;;;13.42;65.79;100653.30;107560;1251;108025;-62
2024/04/01 04:09:15;;;;;;;40.10;6.10;;;;;;;13.44;65.93;100659.46;107509;1254;108360;-62
2024/04/01 04:11:49;;;;;;;37.90;4.90;;;;;;;13.46;66.23;100664.85;107531;1254;99974;-61
2024/04/01 04:14:24;;;;;;;34.90;6.50;;;;;;;13.50;66.36;100669.27;107607;1251;99742;-61
2024/04/01 04:16:53;;;;;;;39.10;6.60;;;;;;;13.52;66.51;100667.11;107536;1251;112450;-62
2024/04/01 04:19:22;;;;;;;41.30;10.20;;;;;;;13.55;66.47;100668.45;107478;1251;107874;-59
2024/04/01 04:21:50;;;;;;;36.80;6.00;;;;;;;13.58;67.62;100671.55;107525;1251;106582;-62
2024/04/01 04:24:18;;;;;;;35.90;7.70;;;;;;;13.54;67.20;100672.10;107542;1256;99314;-63
2024/04/01 04:26:46;;;;;;;36.30;7.80;;;;;;;13.55;68.45;100670.23;107565;1256;99042;-62
2024/04/01 04:29:14;;;;;;;42.60;6.80;;;;;;;13.53;68.38;100668.08;107527;1254;111802;-61
2024/04/01 04:31:55;;;;;;;32.30;6.00;;;;;;;13.51;68.29;100672.39;107568;1253;108090;-62
2024/04/01 04:34:23;;;;;;;28.90;6.50;;;;;;;13.53;67.95;100673.65;107427;1254;107453;-62
2024/04/01 04:36:52;;;;;;;43.70;7.30;;;;;;;13.57;67.83;100674.66;107555;1251;99144;-61
2024/04/01 04:39:24;;;;;;;42.60;6.80;;;;;;;13.63;67.70;100675.23;107536;1254;99312;-62
2024/04/01 04:41:52;;;;;;;41.70;6.50;;;;;;;13.69;67.58;100674.60;107520;1250;112741;-62
2024/04/01 04:44:20;;;;;;;40.20;7.40;;;;;;;13.74;67.48;100676.76;107499;1251;108565;-62
2024/04/01 04:46:48;;;;;;;39.60;6.30;;;;;;;13.77;67.84;100678.39;107480;1251;107314;-62
2024/04/01 04:49:18;;;;;;;34.70;6.20;;;;;;;13.80;67.69;100679.57;107377;1251;99178;-61
2024/04/01 04:51:46;;;;;;;55.80;7.80;;;;;;;13.83;68.00;100678.58;107480;1251;99703;-62
2024/04/01 04:54:14;;;;;;;36.70;6.80;;;;;;;13.86;68.01;100680.08;107668;1251;113597;-61
2024/04/01 04:56:42;;;;;;;40.30;7.70;;;;;;;13.89;67.69;100681.84;107484;1251;108222;-63
2024/04/01 04:59:11;;;;;;;41.60;7.20;;;;;;;13.93;67.72;100681.02;107444;1251;107682;-60
2024/04/01 05:01:39;;;;;;;64.30;8.10;;;;;;;13.97;67.59;100685.89;107435;1254;99089;-62
2024/04/01 05:04:08;;;;;;;39.70;6.60;;;;;;;14.00;68.11;100688.50;107567;1255;99684;-61
2024/04/01 05:06:36;;;;;;;35.40;7.30;;;;;;;14.03;67.84;100683.14;107545;1251;113200;-62
2024/04/01 05:09:05;;;;;;;33.60;6.00;;;;;;;14.04;67.70;100681.52;107533;1251;107936;-63
2024/04/01 05:11:34;;;;;;;45.40;6.70;;;;;;;14.08;67.50;100682.36;107587;1250;108600;-62
2024/04/01 05:14:05;;;;;;;55.90;7.00;;;;;;;14.14;67.41;100686.27;107524;1251;99175;-61
2024/04/01 05:16:33;;;;;;;44.60;7.80;;;;;;;14.19;67.41;100683.93;107621;1251;99816;-62
2024/04/01 05:19:03;;;;;;;38.30;6.70;;;;;;;14.24;67.66;100687.74;107497;1253;113031;-62
2024/04/01 05:21:31;;;;;;;35.80;7.00;;;;;;;14.27;67.42;100685.66;107592;1251;108681;-61
2024/04/01 05:24:05;;;;;;;50.90;7.50;;;;;;;14.31;67.31;100688.11;107510;1251;108092;-64
2024/04/01 05:26:33;;;;;;;35.30;5.80;;;;;;;14.35;67.84;100684.23;107530;1251;99170;-62
2024/04/01 05:29:01;;;;;;;30.70;6.50;;;;;;;14.35;67.69;100688.19;107493;1251;99206;-62
2024/04/01 05:31:32;;;;;;;33.40;6.60;;;;;;;14.39;67.46;100686.58;107485;1251;112470;-63
2024/04/01 05:34:04;;;;;;;30.40;6.50;;;;;;;14.44;67.42;100692.16;107451;1254;108388;-61
2024/04/01 05:36:32;;;;;;;39.40;7.20;;;;;;;14.49;67.36;100696.73;107562;1251;108000;-61
2024/04/01 05:39:01;;;;;;;54.70;7.40;;;;;;;14.53;67.23;100695.56;107582;1250;99241;-62
2024/04/01 05:41:29;;;;;;;52.10;8.00;;;;;;;14.56;67.15;100691.04;107540;1252;99861;-61
2024/04/01 05:43:57;;;;;;;47.80;7.50;;;;;;;14.60;66.97;100688.52;107612;1250;112458;-61
2024/04/01 05:46:26;;;;;;;44.60;8.40;;;;;;;14.64;67.00;100685.34;107553;1250;107422;-62
2024/04/01 05:48:54;;;;;;;34.10;7.50;;;;;;;14.67;66.92;100686.30;107466;1251;107432;-61
2024/04/01 05:51:22;;;;;;;34.50;7.30;;;;;;;14.70;66.86;100690.34;107488;1251;99273;-62
2024/04/01 05:53:50;;;;;;;46.20;8.60;;;;;;;14.73;66.82;100688.95;107519;1250;99735;-62
2024/04/01 05:56:18;;;;;;;51.20;8.10;;;;;;;14.74;66.78;100693.36;107568;1254;113338;-61
2024/04/01 05:58:48;;;;;;;41.00;7.90;;;;;;;14.76;67.27;100695.09;107539;1251;108060;-61
2024/04/01 06:01:16;;;;;;;30.70;7.10;;;;;;;14.78;66.89;100695.29;107537;1253;108010;-62
2024/04/01 06:03:44;;;;;;;39.20;8.10;;;;;;;14.81;66.84;100695.80;107488;1251;99195;-62
2024/04/01 06:06:12;;;;;;;57.90;9.00;;;;;;;14.85;66.78;100701.70;107507;1254;99064;-62
2024/04/01 06:08:40;;;;;;;38.10;9.40;;;;;;;14.90;66.75;100699.27;107616;1251;111837;-62
2024/04/01 06:11:08;;;;;;;46.90;8.60;;;;;;;14.91;66.57;100697.52;107610;1254;107999;-63
2024/04/01 06:13:37;;;;;;;38.80;8.80;;;;;;;14.95;66.51;100701.25;107594;1253;107954;-63
2024/04/01 06:16:06;;;;;;;43.70;9.10;;;;;;;14.99;66.44;100704.21;107605;1254;99317;-63
2024/04/01 06:18:34;;;;;;;55.10;8.70;;;;;;;15.05;66.37;100703.80;107593;1254;99065;-61
2024/04/01 06:21:03;;;;;;;53.00;9.50;;;;;;;15.09;66.40;100707.34;107544;1251;113212;-63
2024/04/01 06:23:31;;;;;;;48.70;8.90;;;;;;;15.13;66.32;100704.46;107539;1251;107095;-62
2024/04/01 06:25:59;;;;;;;45.60;8.10;;;;;;;15.17;66.25;100708.21;107592;1253;108124;-62
2024/04/01 06:28:27;;;;;;;37.50;8.60;;;;;;;15.22;66.21;100707.02;107527;1251;99190;-62
2024/04/01 06:30:56;;;;;;;41.60;9.10;;;;;;;15.25;66.07;100712.38;107599;1251;99099;-63
2024/04/01 06:33:24;;;;;;;47.60;8.60;;;;;;;15.29;66.12;100713.04;107672;1254;113450;-62
2024/04/01 06:36:04;;;;;;;45.20;8.40;;;;;;;15.34;66.02;100712.67;107582;1255;108313;-61
2024/04/01 06:38:32;;;;;;;37.50;7.90;;;;;;;15.40;65.86;100710.48;107621;1253;108753;-62
2024/04/01 06:41:00;;;;;;;95.50;11.60;;;;;;;15.44;65.97;100717.98;107557;1253;99893;-61
2024/04/01 06:43:29;;;;;;;67.40;9.90;;;;;;;15.44;65.85;100723.14;107603;1252;99187;-61
2024/04/01 06:45:59;;;;;;;51.40;10.80;;;;;;;15.49;65.87;100721.30;107613;1254;113743;-61
2024/04/01 06:48:28;;;;;;;44.00;9.10;;;;;;;15.56;65.85;100721.17;107587;1254;108882;-61
2024/04/01 06:50:58;;;;;;;54.40;9.50;;;;;;;15.64;66.05;100719.86;107570;1254;108525;-61
2024/04/01 06:53:26;;;;;;;33.80;9.70;;;;;;;15.75;65.93;100721.05;107615;1251;99710;-61
2024/04/01 06:55:55;;;;;;;40.20;10.40;;;;;;;15.83;65.65;100722.48;107575;1250;99278;-61
2024/04/01 06:58:23;;;;;;;64.30;12.60;;;;;;;15.92;65.50;100723.33;107576;1251;113457;-63
2024/04/01 07:00:55;;;;;;;59.20;11.90;;;;;;;16.00;65.39;100716.45;107528;1250;108400;-62
2024/04/01 07:03:23;;;;;;;34.90;8.40;;;;;;;16.07;65.24;100716.25;107571;1254;107431;-62
2024/04/01 07:05:51;;;;;;;62.40;9.70;;;;;;;16.12;65.13;100708.05;107561;1250;99172;-66
2024/04/01 07:08:19;;;;;;;35.30;8.50;;;;;;;16.18;64.97;100708.30;107547;1251;99073;-62
2024/04/01 07:10:47;;;;;;;36.10;8.10;;;;;;;16.24;64.86;100710.48;107491;1251;113567;-62
2024/04/01 07:13:15;;;;;;;37.50;8.60;;;;;;;16.32;64.70;100713.45;107496;1251;107707;-63
2024/04/01 07:15:45;;;;;;;59.60;10.20;;;;;;;16.40;64.61;100714.48;107545;1251;107519;-62
2024/04/01 07:18:13;;;;;;;39.80;8.20;;;;;;;16.46;64.55;100719.05;107548;1251;99268;-61
2024/04/01 07:20:42;;;;;;;36.50;7.80;;;;;;;16.53;64.40;100722.83;107615;1251;99176;-62
2024/04/01 07:23:10;;;;;;;46.20;7.70;;;;;;;16.60;64.28;100721.98;107516;1251;112754;-62
2024/04/01 07:25:38;;;;;;;39.30;7.60;;;;;;;16.67;64.15;100724.86;107643;1254;108319;-62
2024/04/01 07:28:06;;;;;;;34.50;7.70;;;;;;;16.68;63.93;100727.81;107500;1251;108883;-62
2024/04/01 07:30:34;;;;;;;30.80;7.20;;;;;;;16.72;63.79;100722.90;107482;1253;99250;-61
2024/04/01 07:33:03;;;;;;;31.60;8.00;;;;;;;16.79;63.78;100722.86;107603;1251;99064;-63
2024/04/01 07:35:33;;;;;;;31.50;7.40;;;;;;;16.89;63.80;100724.13;107512;1253;113302;-62
2024/04/01 07:38:01;;;;;;;36.70;6.70;;;;;;;16.99;63.69;100717.13;107543;1250;107846;-62
2024/04/01 07:40:29;;;;;;;33.00;7.60;;;;;;;17.07;63.36;100704.69;107559;1250;108601;-62
2024/04/01 07:42:57;;;;;;;60.50;9.10;;;;;;;17.14;63.15;100706.75;107570;1254;99278;-61
2024/04/01 07:45:26;;;;;;;49.00;9.20;;;;;;;17.22;62.85;100703.96;107506;1251;99204;-63
2024/04/01 07:47:54;;;;;;;42.00;9.40;;;;;;;17.30;62.79;100701.41;107448;1251;112729;-63
2024/04/01 07:50:22;;;;;;;41.10;9.80;;;;;;;17.40;62.64;100703.44;107574;1251;108347;-62
2024/04/01 07:52:50;;;;;;;35.90;9.30;;;;;;;17.51;62.47;100697.00;107360;1253;108580;-62
2024/04/01 07:55:18;;;;;;;49.40;9.90;;;;;;;17.60;62.03;100701.16;107488;1252;99178;-61
2024/04/01 07:57:46;;;;;;;37.70;10.30;;;;;;;17.69;62.00;100704.95;106713;1253;1065750;-62
2024/04/01 08:00:15;;;;;;;74.00;11.00;;;;;;;17.82;61.55;100705.54;107560;1251;113146;-61
2024/04/01 08:02:43;;;;;;;47.60;10.10;;;;;;;17.92;61.42;100702.89;107634;1254;106735;-61
2024/04/01 08:05:12;;;;;;;39.40;10.30;;;;;;;18.06;61.34;100702.31;107639;1250;107080;-61
2024/04/01 08:07:40;;;;;;;33.20;8.90;;;;;;;18.19;60.93;100699.39;107474;1251;99217;-61
2024/04/01 08:10:08;;;;;;;38.10;8.30;;;;;;;18.29;60.63;100698.45;107523;1251;99197;-62
2024/04/01 08:12:36;;;;;;;47.40;8.70;;;;;;;18.41;60.43;100703.37;107504;1250;112203;-62
2024/04/01 08:15:05;;;;;;;29.50;7.60;;;;;;;18.53;60.43;100703.52;107554;1251;107753;-63
2024/04/01 08:17:33;;;;;;;27.20;7.40;;;;;;;18.67;60.21;100700.55;107531;1251;107032;-62
2024/04/01 08:20:02;;;;;;;35.70;9.10;;;;;;;18.80;59.96;100699.98;107451;1254;99167;-61
2024/04/01 08:22:30;;;;;;;41.70;9.80;;;;;;;18.93;59.43;100699.35;107572;1254;99291;-61
2024/04/01 08:24:58;;;;;;;38.70;8.40;;;;;;;19.08;59.10;100699.81;107563;1251;113140;-62
2024/04/01 08:27:26;;;;;;;49.20;10.30;;;;;;;19.22;58.61;100701.92;107556;1250;108431;-61
2024/04/01 08:29:54;;;;;;;39.40;10.20;;;;;;;19.30;57.84;100698.72;107514;1250;108203;-61
2024/04/01 08:32:22;;;;;;;29.40;7.80;;;;;;;19.41;57.75;100695.30;107476;1251;99140;-61
2024/04/01 08:34:50;;;;;;;30.90;9.30;;;;;;;19.51;57.02;100696.17;107480;1251;99743;-63
2024/04/01 08:37:19;;;;;;;34.80;8.80;;;;;;;19.63;57.20;100691.95;107584;1254;113186;-62
2024/04/01 08:39:47;;;;;;;42.40;9.90;;;;;;;19.81;57.15;100692.24;107566;1251;108454;-62
2024/04/01 08:42:19;;;;;;;44.70;12.60;;;;;;;19.98;55.89;100691.88;107487;1251;108309;-62
2024/04/01 08:44:48;;;;;;;52.90;11.10;;;;;;;20.05;55.78;100693.56;107520;1251;99203;-61
2024/04/01 08:47:18;;;;;;;51.30;10.90;;;;;;;20.14;55.91;100693.54;107581;1251;99083;-62
2024/04/01 08:50:21;;;;;;;33.90;9.20;;;;;;;20.27;55.85;100692.55;107474;1253;112711;-64
2024/04/01 08:52:57;;;;;;;44.90;9.90;;;;;;;20.47;55.62;100693.80;107498;1250;108467;-62
2024/04/01 08:55:28;;;;;;;35.30;10.00;;;;;;;20.62;55.17;100686.05;107594;1251;108458;-62
2024/04/01 08:57:57;;;;;;;54.00;11.20;;;;;;;20.73;54.62;100689.10;107555;1254;99224;-62
2024/04/01 09:00:26;;;;;;;63.50;10.30;;;;;;;20.82;54.39;100684.71;107491;1253;99160;-61
2024/04/01 09:02:54;;;;;;;39.30;11.10;;;;;;;20.91;54.05;100685.12;107469;1254;112486;-63
2024/04/01 09:05:22;;;;;;;44.50;10.50;;;;;;;20.97;53.71;100685.17;107404;1251;106858;-63
2024/04/01 09:07:51;;;;;;;49.60;11.00;;;;;;;21.07;53.68;100682.27;107417;1253;107529;-65
2024/04/01 09:10:23;;;;;;;46.70;10.80;;;;;;;21.16;53.79;100677.92;107551;1251;99169;-63
2024/04/01 09:12:54;;;;;;;58.40;18.80;;;;;;;21.26;53.12;100677.34;107617;1251;99300;-63
2024/04/01 09:15:25;;;;;;;47.90;11.90;;;;;;;21.35;52.98;100675.95;107566;1251;112844;-62
2024/04/01 09:17:55;;;;;;;44.50;10.60;;;;;;;21.43;52.59;100673.94;107611;1254;109040;-62
2024/04/01 09:20:23;;;;;;;48.20;11.40;;;;;;;21.51;52.61;100667.40;107515;1250;108344;-64
2024/04/01 09:22:51;;;;;;;55.30;11.20;;;;;;;21.62;52.12;100667.48;107497;1253;99198;-63
2024/04/01 09:25:20;;;;;;;34.00;10.70;;;;;;;21.75;51.37;100664.50;107523;1254;99235;-64
2024/04/01 09:27:48;;;;;;;57.00;11.50;;;;;;;21.84;50.62;100664.78;107582;1251;113174;-63
2024/04/01 09:30:16;;;;;;;36.60;11.80;;;;;;;21.96;50.48;100665.10;107618;1251;107911;-63
2024/04/01 09:32:45;;;;;;;49.10;11.00;;;;;;;22.07;50.24;100663.67;107523;1254;108333;-64
2024/04/01 09:35:13;;;;;;;53.30;12.80;;;;;;;22.20;50.53;100658.24;107525;1254;99210;-63
2024/04/01 09:37:42;;;;;;;44.10;11.80;;;;;;;22.35;50.41;100652.67;107606;1251;100912;-64
2024/04/01 09:40:11;;;;;;;39.50;11.40;;;;;;;22.48;49.91;100652.84;107545;1251;113678;-62
2024/04/01 09:42:39;;;;;;;41.30;11.60;;;;;;;22.59;49.19;100646.75;107556;1251;107609;-63
2024/04/01 09:45:08;;;;;;;43.00;12.00;;;;;;;22.78;49.23;100644.94;107534;1254;107374;-63
2024/04/01 09:47:37;;;;;;;42.90;10.70;;;;;;;23.04;48.88;100640.13;107555;1250;99092;-65
2024/04/01 09:50:09;;;;;;;45.80;10.00;;;;;;;23.30;48.33;100634.10;107538;1250;99949;-63
2024/04/01 09:52:37;;;;;;;49.40;10.40;;;;;;;23.50;48.11;100629.81;107471;1250;113292;-64
2024/04/01 09:55:05;;;;;;;54.30;10.30;;;;;;;23.67;47.81;100626.11;107556;1254;108089;-63
2024/04/01 09:57:52;;;;;;;32.10;9.70;;;;;;;23.95;47.56;100627.01;107525;1254;108196;-63
2024/04/01 10:00:25;;;;;;;62.20;12.00;;;;;;;24.33;47.05;100628.13;107595;1251;99192;-62
2024/04/01 10:03:15;;;;;;;47.50;10.60;;;;;;;24.58;46.76;100632.56;107601;1252;99189;-61
2024/04/01 10:06:25;;;;;;;60.20;11.60;;;;;;;24.69;45.79;100627.10;107551;1254;112575;-63
2024/04/01 10:09:15;;;;;;;52.10;11.10;;;;;;;24.84;45.84;100620.13;107350;1253;108342;-63
2024/04/01 10:11:52;;;;;;;49.60;12.00;;;;;;;25.11;45.03;100610.03;107528;1252;108173;-63
2024/04/01 10:14:45;;;;;;;36.00;10.70;;;;;;;25.61;44.66;100605.06;107549;1256;99278;-64
2024/04/01 10:17:32;;;;;;;44.40;10.20;;;;;;;26.11;44.07;100599.42;107569;1253;99285;-63
2024/04/01 10:20:18;;;;;;;48.10;10.40;;;;;;;26.43;42.97;100593.50;107610;1251;115908;-63
2024/04/01 10:22:46;;;;;;;48.00;9.10;;;;;;;26.68;42.47;100596.83;107554;1250;108370;-63
2024/04/01 10:25:26;;;;;;;49.50;9.90;;;;;;;26.82;42.39;100594.84;107604;1251;108698;-64
2024/04/01 10:28:10;;;;;;;66.80;10.70;;;;;;;26.86;41.86;100591.55;107574;1251;99175;-61
2024/04/01 10:31:02;;;;;;;54.70;12.00;;;;;;;26.76;40.82;100589.80;107583;1251;99169;-63
2024/04/01 10:34:07;;;;;;;64.20;11.20;;;;;;;26.57;40.82;100583.33;107566;1254;112950;-63
2024/04/01 10:36:38;;;;;;;50.40;10.90;;;;;;;26.62;40.78;100583.54;107564;1253;107725;-63
2024/04/01 10:39:25;;;;;;;60.80;10.00;;;;;;;26.77;40.75;100586.64;107622;1251;108557;-62
2024/04/01 10:42:16;;;;;;;62.90;10.00;;;;;;;26.85;40.89;100576.13;107550;1254;99833;-62
2024/04/01 10:45:18;;;;;;;58.40;11.70;;;;;;;26.81;40.55;100568.64;107598;1251;99061;-63
2024/04/01 10:48:16;;;;;;;63.00;11.40;;;;;;;26.77;40.50;100567.55;107644;1251;113020;-62
2024/04/01 10:51:16;;;;;;;76.60;12.10;;;;;;;27.03;40.31;100564.23;107619;1251;108410;-63
2024/04/01 10:54:05;;;;;;;56.30;10.20;;;;;;;27.23;40.13;100562.20;107537;1254;108668;-63
2024/04/01 10:57:11;;;;;;;57.20;9.60;;;;;;;27.41;39.90;100557.73;107611;1253;99872;-64
2024/04/01 11:00:17;;;;;;;72.50;10.30;;;;;;;27.66;39.81;100554.95;107613;1253;99921;-63
2024/04/01 11:03:01;;;;;;;50.20;10.50;;;;;;;27.76;39.32;100552.04;107565;1251;113199;-63
2024/04/01 11:05:57;;;;;;;56.50;9.70;;;;;;;27.98;39.20;100539.44;107645;1251;107487;-64
2024/04/01 11:08:36;;;;;;;54.80;11.10;;;;;;;28.30;38.56;100537.04;107536;1254;107169;-63
2024/04/01 11:11:19;;;;;;;39.10;9.60;;;;;;;28.26;38.15;100538.16;107600;1251;99352;-63
2024/04/01 11:14:08;;;;;;;57.10;10.30;;;;;;;28.08;38.18;100533.37;107549;1253;99373;-64
2024/04/01 11:16:41;;;;;;;49.90;11.10;;;;;;;27.94;37.69;100533.73;107574;1253;112457;-62
2024/04/01 11:19:38;;;;;;;47.20;11.40;;;;;;;27.82;37.93;100531.11;107552;1253;107955;-62